createdAt,value
2022-10-09T00:01:08.688Z,7.65
2022-10-09T00:03:38.236Z,7.63
2022-10-09T00:06:07.138Z,7.71
2022-10-09T00:08:35.343Z,7.88
2022-10-09T00:11:07.305Z,7.91
2022-10-09T00:13:34.581Z,7.72
2022-10-09T00:16:09.768Z,7.69
2022-10-09T00:18:37.388Z,7.80
2022-10-09T00:21:06.280Z,7.83
2022-10-09T00:23:33.504Z,7.68
2022-10-09T00:26:20.154Z,7.69
2022-10-09T00:28:48.133Z,7.77
2022-10-09T00:31:16.188Z,7.68
2022-10-09T00:33:44.562Z,7.69
2022-10-09T00:36:15.467Z,7.68
2022-10-09T00:38:42.531Z,7.67
2022-10-09T00:41:21.784Z,7.64
2022-10-09T00:43:54.873Z,7.57
2022-10-09T00:46:45.922Z,7.58
2022-10-09T00:49:21.006Z,7.55
2022-10-09T00:51:50.166Z,7.55
2022-10-09T00:54:20.462Z,7.54
2022-10-09T00:56:49.060Z,7.57
2022-10-09T00:59:18.423Z,7.54
2022-10-09T01:01:46.483Z,7.18
2022-10-09T01:04:13.749Z,7.44
2022-10-09T01:07:05.968Z,7.47
2022-10-09T01:09:42.290Z,7.36
2022-10-09T01:12:20.436Z,7.49
2022-10-09T01:15:05.420Z,7.47
2022-10-09T01:17:39.726Z,7.48
2022-10-09T01:20:29.161Z,7.47
2022-10-09T01:23:05.981Z,7.45
2022-10-09T01:25:46.354Z,7.37
2022-10-09T01:28:15.882Z,7.39
2022-10-09T01:30:43.708Z,7.34
2022-10-09T01:33:11.631Z,7.29
2022-10-09T01:35:40.975Z,7.19
2022-10-09T01:38:08.687Z,7.29
2022-10-09T01:40:38.543Z,7.35
2022-10-09T01:43:05.955Z,7.36
2022-10-09T01:45:41.664Z,7.34
2022-10-09T01:48:13.007Z,7.17
2022-10-09T01:50:48.092Z,7.25
2022-10-09T01:53:19.843Z,7.23
2022-10-09T01:55:56.757Z,7.29
2022-10-09T01:58:52.070Z,7.21
2022-10-09T02:01:34.573Z,7.28
2022-10-09T02:04:05.851Z,7.18
2022-10-09T02:06:34.348Z,7.21
2022-10-09T02:09:04.460Z,7.19
2022-10-09T02:11:33.592Z,7.24
2022-10-09T02:14:00.734Z,7.19
2022-10-09T02:16:43.865Z,7.18
2022-10-09T02:19:17.390Z,7.17
2022-10-09T02:21:54.401Z,7.03
2022-10-09T02:24:23.462Z,7.14
2022-10-09T02:26:53.670Z,7.04
2022-10-09T02:29:22.049Z,7.15
2022-10-09T02:31:49.130Z,7.13
2022-10-09T02:34:20.457Z,7.08
2022-10-09T02:36:48.554Z,7.09
2022-10-09T02:39:15.954Z,7.11
2022-10-09T02:41:43.050Z,7.15
2022-10-09T02:44:10.486Z,6.97
2022-10-09T02:46:38.728Z,7.16
2022-10-09T02:49:06.861Z,7.09
2022-10-09T02:51:35.068Z,7.11
2022-10-09T02:54:03.438Z,7.11
2022-10-09T02:56:30.537Z,6.99
2022-10-09T02:58:58.667Z,7.00
2022-10-09T03:01:26.745Z,6.96
2022-10-09T03:03:54.669Z,7.13
2022-10-09T03:06:26.800Z,7.10
2022-10-09T03:08:54.412Z,6.99
2022-10-09T03:11:23.598Z,7.11
2022-10-09T03:13:51.060Z,6.98
2022-10-09T03:16:21.446Z,7.05
2022-10-09T03:18:49.986Z,7.03
2022-10-09T03:21:22.879Z,6.91
2022-10-09T03:23:51.381Z,6.95
2022-10-09T03:26:21.542Z,7.10
2022-10-09T03:28:50.293Z,7.14
2022-10-09T03:31:39.638Z,7.13
2022-10-09T03:34:07.530Z,7.08
2022-10-09T03:36:34.506Z,7.18
2022-10-09T03:39:01.529Z,7.19
2022-10-09T03:41:28.529Z,7.01
2022-10-09T03:43:55.570Z,7.21
2022-10-09T03:46:22.693Z,7.21
2022-10-09T03:48:49.975Z,7.14
2022-10-09T03:51:17.170Z,7.28
2022-10-09T03:53:44.413Z,7.31
2022-10-09T03:56:11.446Z,7.02
2022-10-09T03:58:38.748Z,7.41
2022-10-09T04:01:05.760Z,7.42
2022-10-09T04:03:32.919Z,7.44
2022-10-09T04:06:00.185Z,7.51
2022-10-09T04:08:27.790Z,7.53
2022-10-09T04:11:01.554Z,7.48
2022-10-09T04:13:28.660Z,7.60
2022-10-09T04:15:57.903Z,7.48
2022-10-09T04:18:26.226Z,7.63
2022-10-09T04:20:55.984Z,7.73
2022-10-09T04:23:26.270Z,7.51
2022-10-09T04:25:58.555Z,7.78
2022-10-09T04:28:27.103Z,7.77
2022-10-09T04:30:55.094Z,7.83
2022-10-09T04:33:25.283Z,7.83
2022-10-09T04:35:54.246Z,7.89
2022-10-09T04:38:22.309Z,7.90
2022-10-09T04:41:00.929Z,7.80
2022-10-09T04:43:28.973Z,7.99
2022-10-09T04:45:57.032Z,7.83
2022-10-09T04:48:25.832Z,8.06
2022-10-09T04:50:52.880Z,8.08
2022-10-09T04:53:20.946Z,8.12
2022-10-09T04:55:47.977Z,8.10
2022-10-09T04:58:15.174Z,8.06
2022-10-09T05:00:46.502Z,8.18
2022-10-09T05:03:16.982Z,8.16
2022-10-09T05:09:28.509Z,7.81
2022-10-09T05:12:36.088Z,8.47
2022-10-09T05:15:03.351Z,8.54
2022-10-09T05:17:31.005Z,8.69
2022-10-09T05:19:58.032Z,8.68
2022-10-09T05:22:26.360Z,8.79
2022-10-09T05:24:56.512Z,8.81
2022-10-09T05:27:25.408Z,9.12
2022-10-09T05:29:54.497Z,9.17
2022-10-09T05:32:27.503Z,9.20
2022-10-09T05:34:59.892Z,9.07
2022-10-09T05:37:31.022Z,9.42
2022-10-09T05:40:06.709Z,9.57
2022-10-09T05:42:37.314Z,9.69
2022-10-09T05:45:10.497Z,9.77
2022-10-09T05:47:48.186Z,9.53
2022-10-09T05:50:21.625Z,10.01
2022-10-09T05:52:51.532Z,10.03
2022-10-09T05:55:20.359Z,10.14
2022-10-09T05:57:50.771Z,10.34
2022-10-09T06:00:18.989Z,10.24
2022-10-09T06:02:47.783Z,10.53
2022-10-09T06:05:15.734Z,10.59
2022-10-09T06:07:45.832Z,10.81
2022-10-09T06:10:16.285Z,11.18
2022-10-09T06:12:46.161Z,11.06
2022-10-09T06:15:25.866Z,10.98
2022-10-09T06:17:53.475Z,11.10
2022-10-09T06:20:20.757Z,11.12
2022-10-09T06:22:48.104Z,11.30
2022-10-09T06:25:15.351Z,11.28
2022-10-09T06:27:42.414Z,11.57
2022-10-09T06:30:10.202Z,11.80
2022-10-09T06:32:37.338Z,11.53
2022-10-09T06:35:04.532Z,11.97
2022-10-09T06:37:31.953Z,12.33
2022-10-09T06:39:58.890Z,12.49
2022-10-09T06:42:25.845Z,12.24
2022-10-09T06:44:57.575Z,12.08
2022-10-09T06:47:24.565Z,12.14
2022-10-09T06:49:51.826Z,12.29
2022-10-09T06:52:18.964Z,12.77
2022-10-09T06:54:46.869Z,13.05
2022-10-09T06:57:14.351Z,13.43
2022-10-09T06:59:41.465Z,13.50
2022-10-09T07:02:09.187Z,13.48
2022-10-09T07:04:36.392Z,13.51
2022-10-09T07:07:03.840Z,13.43
2022-10-09T07:09:31.520Z,13.69
2022-10-09T07:11:58.623Z,14.04
2022-10-09T07:14:25.811Z,14.02
2022-10-09T07:16:53.469Z,14.02
2022-10-09T07:19:21.813Z,14.12
2022-10-09T07:21:50.489Z,14.04
2022-10-09T07:24:20.612Z,14.13
2022-10-09T07:26:48.571Z,14.44
2022-10-09T07:29:18.070Z,14.42
2022-10-09T07:31:45.837Z,14.72
2022-10-09T07:34:13.101Z,14.64
2022-10-09T07:36:40.062Z,14.38
2022-10-09T07:39:07.294Z,14.52
2022-10-09T07:41:34.956Z,14.82
2022-10-09T07:44:02.341Z,15.13
2022-10-09T07:46:33.347Z,15.04
2022-10-09T07:49:01.673Z,15.21
2022-10-09T07:51:29.645Z,15.07
2022-10-09T07:54:02.040Z,14.84
2022-10-09T07:56:32.225Z,15.30
2022-10-09T07:59:02.190Z,15.63
2022-10-09T08:01:31.440Z,16.01
2022-10-09T08:03:59.993Z,15.73
2022-10-09T08:06:27.850Z,15.88
2022-10-09T08:08:57.097Z,15.61
2022-10-09T08:11:26.441Z,15.55
2022-10-09T08:13:54.126Z,15.71
2022-10-09T08:16:23.345Z,16.13
2022-10-09T08:18:55.206Z,16.01
2022-10-09T08:21:23.060Z,15.76
2022-10-09T08:23:54.411Z,15.51
2022-10-09T08:26:23.912Z,15.72
2022-10-09T08:28:59.813Z,15.98
2022-10-09T08:31:28.405Z,15.91
2022-10-09T08:33:57.472Z,16.12
2022-10-09T08:36:25.228Z,16.01
2022-10-09T08:38:52.471Z,16.25
2022-10-09T08:41:34.687Z,16.62
2022-10-09T08:44:30.204Z,16.81
2022-10-09T08:47:03.630Z,16.89
2022-10-09T08:49:36.779Z,17.02
2022-10-09T08:52:30.043Z,16.94
2022-10-09T08:55:01.413Z,16.78
2022-10-09T08:57:34.658Z,17.21
2022-10-09T09:00:01.750Z,17.09
2022-10-09T09:02:56.120Z,17.11
2022-10-09T09:05:39.782Z,17.34
2022-10-09T09:08:13.829Z,17.52
2022-10-09T09:10:47.274Z,17.35
2022-10-09T09:13:24.320Z,17.29
2022-10-09T09:16:02.901Z,17.20
2022-10-09T09:18:42.499Z,17.11
2022-10-09T09:21:17.701Z,17.11
2022-10-09T09:23:47.926Z,17.07
2022-10-09T09:26:18.962Z,17.02
2022-10-09T09:28:49.707Z,17.03
2022-10-09T09:31:37.613Z,17.38
2022-10-09T09:34:11.687Z,17.37
2022-10-09T09:36:55.037Z,17.73
2022-10-09T09:42:18.833Z,17.90
2022-10-09T09:45:07.965Z,18.08
2022-10-09T09:47:42.299Z,18.27
2022-10-09T09:50:23.425Z,18.32
2022-10-09T09:52:57.201Z,19.11
2022-10-09T09:55:27.969Z,19.12
2022-10-09T09:58:02.628Z,18.97
2022-10-09T10:00:29.775Z,18.69
2022-10-09T10:03:23.731Z,18.25
2022-10-09T10:05:51.808Z,18.22
2022-10-09T10:08:34.910Z,18.31
2022-10-09T10:11:05.952Z,18.34
2022-10-09T10:13:38.195Z,18.18
2022-10-09T10:16:08.288Z,18.25
2022-10-09T10:18:40.928Z,18.61
2022-10-09T10:21:17.488Z,18.84
2022-10-09T10:23:58.685Z,18.37
2022-10-09T10:26:35.820Z,18.07
2022-10-09T10:29:08.560Z,18.29
2022-10-09T10:31:47.840Z,18.13
2022-10-09T10:34:39.186Z,18.32
2022-10-09T10:37:15.077Z,18.49
2022-10-09T10:39:49.580Z,18.46
2022-10-09T10:42:24.656Z,18.66
2022-10-09T10:45:04.034Z,18.91
2022-10-09T10:47:38.291Z,18.91
2022-10-09T10:50:12.562Z,19.11
2022-10-09T10:52:55.588Z,19.15
2022-10-09T10:55:52.462Z,19.50
2022-10-09T10:58:44.698Z,19.90
2022-10-09T11:01:27.619Z,19.78
2022-10-09T11:04:15.447Z,19.50
2022-10-09T11:06:55.730Z,18.96
2022-10-09T11:09:37.454Z,18.46
2022-10-09T11:12:19.320Z,18.21
2022-10-09T11:14:56.130Z,17.89
2022-10-09T11:17:36.464Z,17.49
2022-10-09T11:20:15.687Z,17.27
2022-10-09T11:22:58.431Z,17.11
2022-10-09T11:25:59.018Z,17.00
2022-10-09T11:28:37.811Z,17.21
2022-10-09T11:31:14.511Z,17.26
2022-10-09T11:33:47.094Z,17.35
2022-10-09T11:36:27.144Z,17.42
2022-10-09T11:39:01.056Z,17.42
2022-10-09T11:41:30.945Z,17.36
2022-10-09T11:44:21.195Z,17.29
2022-10-09T11:46:54.298Z,17.25
2022-10-09T11:49:38.729Z,16.96
2022-10-09T11:52:42.675Z,16.90
2022-10-09T11:55:25.322Z,16.67
2022-10-09T11:57:53.383Z,16.69
2022-10-09T12:00:33.039Z,16.45
2022-10-09T12:03:03.667Z,16.52
2022-10-09T12:05:46.517Z,16.17
2022-10-09T12:08:19.440Z,16.28
2022-10-09T12:10:54.229Z,16.37
2022-10-09T12:13:47.968Z,16.26
2022-10-09T12:16:40.662Z,16.10
2022-10-09T12:19:31.272Z,16.09
2022-10-09T12:22:06.447Z,16.06
2022-10-09T12:24:50.651Z,15.99
2022-10-09T12:27:25.368Z,16.00
2022-10-09T12:30:04.744Z,15.92
2022-10-09T12:32:37.578Z,15.84
2022-10-09T12:35:25.942Z,15.79
2022-10-09T12:37:53.196Z,15.77
2022-10-09T12:40:25.351Z,15.72
2022-10-09T12:42:54.477Z,15.69
2022-10-09T12:45:26.087Z,15.66
2022-10-09T12:47:54.598Z,15.46
2022-10-09T12:50:32.372Z,15.64
2022-10-09T12:53:06.401Z,15.50
2022-10-09T12:55:36.173Z,15.60
2022-10-09T12:58:26.330Z,15.57
2022-10-09T13:01:02.847Z,15.46
2022-10-09T13:03:32.853Z,15.51
2022-10-09T13:06:01.282Z,15.47
2022-10-09T13:08:31.367Z,15.39
2022-10-09T13:11:21.318Z,15.39
2022-10-09T13:13:54.019Z,15.31
2022-10-09T13:16:21.814Z,15.31
2022-10-09T13:19:03.089Z,15.29
2022-10-09T13:21:35.370Z,15.26
2022-10-09T13:24:11.096Z,15.11
2022-10-09T13:26:40.861Z,15.20
2022-10-09T13:29:09.167Z,15.17
2022-10-09T13:31:37.121Z,15.03
2022-10-09T13:34:12.713Z,15.05
2022-10-09T13:36:40.591Z,14.90
2022-10-09T13:39:14.629Z,15.00
2022-10-09T13:41:43.334Z,14.93
2022-10-09T13:44:10.460Z,14.94
2022-10-09T13:46:37.591Z,14.98
2022-10-09T13:49:04.759Z,14.96
2022-10-09T13:51:32.896Z,14.72
2022-10-09T13:53:59.850Z,14.88
2022-10-09T13:56:27.857Z,14.91
2022-10-09T13:58:55.193Z,14.88
2022-10-09T14:01:22.738Z,14.86
2022-10-09T14:03:50.707Z,14.79
2022-10-09T14:06:17.894Z,14.60
2022-10-09T14:08:44.969Z,14.59
2022-10-09T14:11:11.925Z,14.36
2022-10-09T14:13:39.030Z,13.97
2022-10-09T14:16:07.903Z,13.74
2022-10-09T14:18:35.270Z,13.65
2022-10-09T14:21:12.512Z,13.40
2022-10-09T14:23:42.269Z,13.32
2022-10-09T14:26:10.091Z,13.13
2022-10-09T14:28:38.197Z,13.15
2022-10-09T14:31:07.643Z,12.95
2022-10-09T14:33:34.989Z,12.79
2022-10-09T14:36:10.312Z,12.96
2022-10-09T14:38:42.093Z,12.93
2022-10-09T14:41:10.217Z,12.90
2022-10-09T14:43:37.145Z,12.92
2022-10-09T14:46:13.304Z,12.89
2022-10-09T14:48:40.546Z,12.86
2022-10-09T14:51:11.214Z,12.76
2022-10-09T14:53:38.504Z,12.63
2022-10-09T14:56:08.362Z,12.71
2022-10-09T14:58:36.861Z,12.71
2022-10-09T15:01:04.871Z,12.65
2022-10-09T15:03:32.328Z,12.58
2022-10-09T15:06:06.055Z,12.58
2022-10-09T15:08:34.858Z,12.49
2022-10-09T15:11:02.379Z,12.53
2022-10-09T15:13:29.883Z,12.50
2022-10-09T15:16:04.779Z,12.49
2022-10-09T15:18:32.078Z,12.38
2022-10-09T15:21:01.871Z,12.16
2022-10-09T15:23:29.666Z,12.14
2022-10-09T15:26:00.868Z,12.15
2022-10-09T15:28:28.092Z,11.91
2022-10-09T15:30:58.363Z,11.72
2022-10-09T15:33:26.117Z,11.88
2022-10-09T15:35:54.161Z,11.65
2022-10-09T15:38:23.360Z,11.70
2022-10-09T15:40:57.235Z,11.70
2022-10-09T15:43:26.411Z,11.51
2022-10-09T15:46:02.585Z,11.48
2022-10-09T15:48:31.067Z,11.36
2022-10-09T15:50:58.510Z,11.30
2022-10-09T15:53:25.807Z,11.10
2022-10-09T15:55:53.470Z,11.10
2022-10-09T15:58:21.679Z,11.15
2022-10-09T16:00:49.919Z,10.92
2022-10-09T16:03:18.207Z,11.03
2022-10-09T16:05:49.526Z,10.95
2022-10-09T16:08:19.117Z,11.04
2022-10-09T16:10:49.561Z,10.96
2022-10-09T16:13:16.811Z,11.00
2022-10-09T16:15:48.216Z,10.96
2022-10-09T16:18:22.486Z,10.92
2022-10-09T16:20:50.379Z,10.89
2022-10-09T16:23:18.323Z,10.90
2022-10-09T16:25:56.540Z,10.90
2022-10-09T16:28:24.189Z,10.82
2022-10-09T16:30:51.905Z,10.77
2022-10-09T16:33:19.608Z,10.74
2022-10-09T16:35:46.708Z,10.94
2022-10-09T16:38:17.709Z,10.88
2022-10-09T16:41:01.494Z,10.94
2022-10-09T16:43:32.877Z,10.94
2022-10-09T16:46:29.452Z,10.89
2022-10-09T16:48:58.534Z,10.82
2022-10-09T16:51:33.148Z,10.74
2022-10-09T16:54:02.430Z,10.67
2022-10-09T16:56:35.159Z,10.67
2022-10-09T16:59:05.336Z,10.74
2022-10-09T17:01:33.674Z,10.68
2022-10-09T17:04:02.594Z,10.76
2022-10-09T17:06:31.110Z,10.80
2022-10-09T17:08:59.827Z,10.77
2022-10-09T17:11:29.935Z,10.81
2022-10-09T17:13:57.879Z,10.79
2022-10-09T17:16:28.503Z,10.82
2022-10-09T17:18:58.273Z,10.89
2022-10-09T17:21:29.289Z,10.66
2022-10-09T17:24:01.511Z,10.84
2022-10-09T17:26:31.216Z,10.74
2022-10-09T17:29:00.197Z,10.73
2022-10-09T17:31:29.327Z,10.86
2022-10-09T17:34:00.457Z,10.85
2022-10-09T17:36:34.450Z,10.84
2022-10-09T17:39:02.232Z,10.79
2022-10-09T17:41:30.425Z,10.78
2022-10-09T17:43:57.872Z,10.79
2022-10-09T17:46:28.224Z,10.80
2022-10-09T17:49:00.671Z,10.71
2022-10-09T17:51:39.673Z,10.81
2022-10-09T17:54:17.148Z,10.76
2022-10-09T17:56:45.057Z,10.80
2022-10-09T17:59:12.581Z,10.76
2022-10-09T18:01:39.909Z,10.67
2022-10-09T18:04:19.111Z,10.61
2022-10-09T18:06:47.061Z,10.69
2022-10-09T18:09:14.597Z,10.55
2022-10-09T18:11:44.233Z,10.64
2022-10-09T18:14:34.021Z,10.54
2022-10-09T18:17:02.302Z,10.33
2022-10-09T18:19:30.381Z,10.50
2022-10-09T18:21:58.066Z,10.31
2022-10-09T18:24:27.044Z,10.43
2022-10-09T18:26:54.925Z,10.34
2022-10-09T18:29:23.772Z,10.43
2022-10-09T18:31:55.812Z,10.39
2022-10-09T18:34:27.952Z,10.32
2022-10-09T18:36:56.065Z,10.36
2022-10-09T18:39:23.243Z,10.31
2022-10-09T18:41:50.412Z,10.30
2022-10-09T18:44:19.771Z,10.26
2022-10-09T18:46:51.514Z,10.07
2022-10-09T18:49:21.938Z,10.21
2022-10-09T18:51:49.822Z,10.18
2022-10-09T18:54:19.691Z,10.16
2022-10-09T18:56:47.410Z,10.15
2022-10-09T18:59:18.682Z,10.05
2022-10-09T19:01:46.389Z,10.03
2022-10-09T19:04:13.737Z,10.09
2022-10-09T19:06:40.941Z,9.98
2022-10-09T19:09:08.685Z,10.10
2022-10-09T19:11:37.123Z,10.09
2022-10-09T19:14:04.315Z,9.99
2022-10-09T19:16:34.000Z,9.96
2022-10-09T19:19:01.509Z,10.02
2022-10-09T19:21:28.619Z,10.10
2022-10-09T19:23:58.896Z,9.99
2022-10-09T19:26:26.753Z,10.04
2022-10-09T19:28:55.077Z,10.06
2022-10-09T19:31:22.594Z,10.08
2022-10-09T19:33:49.896Z,9.90
2022-10-09T19:36:17.909Z,10.07
2022-10-09T19:38:45.922Z,9.76
2022-10-09T19:41:15.410Z,10.06
2022-10-09T19:43:42.924Z,9.99
2022-10-09T19:46:17.359Z,10.03
2022-10-09T19:48:45.957Z,10.01
2022-10-09T19:51:16.381Z,10.01
2022-10-09T19:53:43.782Z,9.97
2022-10-09T19:56:13.107Z,9.82
2022-10-09T19:58:42.094Z,9.88
2022-10-09T20:01:14.543Z,9.79
2022-10-09T20:03:42.742Z,9.77
2022-10-09T20:06:10.771Z,9.62
2022-10-09T20:08:39.655Z,9.77
2022-10-09T20:11:07.665Z,9.72
2022-10-09T20:13:37.356Z,9.74
2022-10-09T20:16:08.561Z,9.77
2022-10-09T20:18:35.721Z,9.79
2022-10-09T20:21:02.801Z,9.84
2022-10-09T20:23:29.739Z,9.85
2022-10-09T20:26:11.282Z,9.85
2022-10-09T20:28:38.459Z,9.86
2022-10-09T20:31:07.983Z,9.86
2022-10-09T20:33:38.967Z,9.88
2022-10-09T20:36:07.361Z,9.88
2022-10-09T20:38:35.285Z,9.87
2022-10-09T20:41:04.560Z,9.88
2022-10-09T20:43:31.880Z,9.88
2022-10-09T20:45:59.185Z,9.87
2022-10-09T20:48:26.210Z,9.88
2022-10-09T20:50:53.387Z,9.92
2022-10-09T20:53:20.775Z,9.90
2022-10-09T20:55:47.908Z,9.83
2022-10-09T20:58:14.863Z,9.86
2022-10-09T21:00:43.323Z,9.66
2022-10-09T21:03:12.581Z,9.87
2022-10-09T21:05:41.916Z,9.86
2022-10-09T21:08:09.647Z,9.84
2022-10-09T21:10:43.353Z,9.86
2022-10-09T21:13:10.415Z,9.73
2022-10-09T21:15:45.367Z,9.83
2022-10-09T21:18:14.114Z,9.84
2022-10-09T21:20:42.971Z,9.75
2022-10-09T21:23:12.577Z,9.83
2022-10-09T21:25:47.547Z,9.83
2022-10-09T21:28:14.875Z,9.75
2022-10-09T21:30:41.985Z,9.81
2022-10-09T21:33:09.892Z,9.77
2022-10-09T21:35:42.024Z,9.76
2022-10-09T21:38:15.193Z,9.77
2022-10-09T21:40:43.083Z,9.71
2022-10-09T21:43:10.971Z,9.78
2022-10-09T21:45:39.062Z,9.64
2022-10-09T21:48:07.051Z,9.69
2022-10-09T21:50:34.639Z,9.77
2022-10-09T21:53:01.834Z,9.45
2022-10-09T21:55:29.219Z,9.70
2022-10-09T21:57:56.612Z,9.73
2022-10-09T22:00:24.379Z,9.78
2022-10-09T22:02:51.889Z,9.72
2022-10-09T22:05:19.051Z,9.79
2022-10-09T22:07:46.088Z,9.74
2022-10-09T22:10:13.122Z,9.76
2022-10-09T22:12:40.262Z,9.76
2022-10-09T22:15:08.248Z,9.71
2022-10-09T22:17:35.956Z,9.59
2022-10-09T22:20:03.547Z,9.61
2022-10-09T22:22:31.443Z,9.60
2022-10-09T22:25:00.409Z,9.56
2022-10-09T22:27:27.491Z,9.37
2022-10-09T22:29:55.487Z,9.37
2022-10-09T22:32:23.172Z,9.40
2022-10-09T22:34:51.823Z,9.18
2022-10-09T22:37:18.859Z,9.16
2022-10-09T22:39:45.935Z,9.28
2022-10-09T22:42:12.949Z,9.32
2022-10-09T22:44:40.068Z,9.10
2022-10-09T22:47:07.034Z,9.35
2022-10-09T22:49:34.803Z,9.34
2022-10-09T22:52:02.699Z,9.33
2022-10-09T22:54:29.873Z,9.28
2022-10-09T22:56:56.915Z,9.32
2022-10-09T22:59:23.991Z,9.29
2022-10-09T23:01:55.946Z,9.31
2022-10-09T23:04:23.593Z,9.26
2022-10-09T23:06:56.394Z,9.29
2022-10-09T23:09:28.426Z,9.29
2022-10-09T23:11:56.774Z,9.19
2022-10-09T23:14:24.430Z,9.28
2022-10-09T23:16:51.490Z,9.16
2022-10-09T23:19:18.692Z,9.17
2022-10-09T23:21:46.706Z,9.19
2022-10-09T23:24:17.862Z,9.16
2022-10-09T23:26:46.683Z,9.15
2022-10-09T23:29:18.824Z,9.18
2022-10-09T23:31:46.170Z,9.18
2022-10-09T23:34:13.526Z,9.07
2022-10-09T23:36:40.579Z,8.99
2022-10-09T23:39:07.819Z,9.07
2022-10-09T23:41:35.641Z,9.25
2022-10-09T23:44:03.757Z,9.02
2022-10-09T23:46:34.751Z,9.27
2022-10-09T23:49:02.209Z,9.18
2022-10-09T23:51:30.258Z,9.21
2022-10-09T23:53:58.504Z,9.21
2022-10-09T23:56:30.456Z,9.23
2022-10-09T23:58:59.395Z,9.13
